Los Angeles, California
Current Conditions -  °F | °C
As of 12:47 AM on Thursday 18 Dec 2014 (Local Time) from KCQT Reporting Station
Clear Clear  
Wind Chill: 12°   Ceiling: Unl
Heat Index: 12°   Visibility: 10mi
Dew Point:   Wind: 0mph
Humidity: 69%   Direction: NA
Pressure: 30.1"   Gusts: NA
Location:  34.05°N, 118.24°W
Report Text: KCQT 180847Z AUTO 00000KT 10SM CLR 12/07 A3010 RMK AO2 SLP193 T01220067 58001
Loading
Personal Weather Stations






























Interactive Weather Map New forecast layout! Learn more

10-Day Weather Forecast

Advertisements
Track Severe Weather on mobile